createdAt,value
2019-01-25T00:02:29.578Z,99903.41
2019-01-25T00:12:39.873Z,99905.80
2019-01-25T00:17:45.677Z,99904.50
2019-01-25T00:22:50.815Z,99907.28
2019-01-25T00:27:56.643Z,99913.38
2019-01-25T00:33:01.779Z,99917.07
2019-01-25T00:38:07.042Z,99922.00
2019-01-25T00:43:12.440Z,99912.39
2019-01-25T00:48:17.820Z,99913.97
2019-01-25T00:53:23.235Z,99920.28
2019-01-25T00:58:29.062Z,99922.48
2019-01-25T01:03:35.364Z,99916.40
2019-01-25T01:08:42.220Z,99924.98
2019-01-25T01:13:47.501Z,99923.59
2019-01-25T01:18:53.655Z,99935.07
2019-01-25T01:23:58.926Z,99928.00
2019-01-25T01:29:04.713Z,99937.78
2019-01-25T01:34:38.228Z,99940.98
2019-01-25T01:39:47.527Z,99943.79
2019-01-25T01:44:54.015Z,99948.17
2019-01-25T01:50:01.478Z,99951.48
2019-01-25T01:55:07.571Z,99950.39
2019-01-25T02:00:22.206Z,99950.39
2019-01-25T02:05:28.439Z,99959.37
2019-01-25T02:10:35.274Z,99963.75
2019-01-25T02:15:40.586Z,99966.25
2019-01-25T02:20:46.776Z,99961.88
2019-01-25T02:25:52.277Z,99961.55
2019-01-25T02:30:57.719Z,99953.88
2019-01-25T02:36:02.816Z,99954.36
2019-01-25T02:41:07.895Z,99957.78
2019-01-25T02:46:13.240Z,99959.56
2019-01-25T02:51:18.384Z,99955.18
2019-01-25T02:56:23.553Z,99951.48
2019-01-25T03:01:29.116Z,99956.78
2019-01-25T03:06:34.508Z,99959.06
2019-01-25T03:11:39.617Z,99961.77
2019-01-25T03:16:44.958Z,99961.77
2019-01-25T03:21:50.319Z,99954.86
2019-01-25T03:26:55.544Z,99954.86
2019-01-25T03:32:00.933Z,99947.97
2019-01-25T03:37:06.292Z,99949.36
2019-01-25T03:42:11.422Z,99957.57
2019-01-25T03:47:16.731Z,99953.26
2019-01-25T03:52:21.906Z,99963.37
2019-01-25T03:57:26.978Z,99954.97
2019-01-25T04:02:32.176Z,99953.26
2019-01-25T04:07:37.576Z,99959.67
2019-01-25T04:12:42.920Z,99957.97
2019-01-25T04:17:48.232Z,99962.97
2019-01-25T04:22:53.816Z,99961.97
2019-01-25T04:27:59.030Z,99963.08
2019-01-25T04:33:04.245Z,99962.46
2019-01-25T04:38:09.866Z,99967.25
2019-01-25T04:43:14.905Z,99970.77
2019-01-25T04:48:20.690Z,99974.16
2019-01-25T04:53:26.430Z,99965.06
2019-01-25T04:58:31.532Z,99963.08
2019-01-25T05:03:38.664Z,99973.05
2019-01-25T05:08:43.891Z,99973.26
2019-01-25T05:13:49.195Z,99979.45
2019-01-25T05:18:55.310Z,99976.37
2019-01-25T05:24:09.923Z,99981.56
2019-01-25T05:29:17.286Z,99974.34
2019-01-25T05:34:22.753Z,99977.36
2019-01-25T05:39:28.522Z,99981.26
2019-01-25T05:44:34.672Z,99974.77
2019-01-25T05:49:40.032Z,99983.05
2019-01-25T05:54:45.635Z,99994.14
2019-01-25T05:59:51.301Z,99987.03
2019-01-25T06:05:04.220Z,99990.84
2019-01-25T06:10:10.100Z,99999.23
2019-01-25T06:15:15.589Z,99993.44
2019-01-25T06:20:24.642Z,99997.54
2019-01-25T06:25:37.904Z,99998.53
2019-01-25T06:30:53.110Z,99998.25
2019-01-25T06:36:00.430Z,99994.36
2019-01-25T06:41:06.848Z,100003.43
2019-01-25T06:46:12.730Z,100012.22
2019-01-25T06:51:20.450Z,100012.04
2019-01-25T06:56:27.099Z,100017.72
2019-01-25T07:02:07.928Z,100029.41
2019-01-25T07:07:34.336Z,100032.00
2019-01-25T07:12:40.744Z,100036.31
2019-01-25T07:17:46.400Z,100045.98
2019-01-25T07:22:51.727Z,100051.69
2019-01-25T07:27:58.753Z,100055.59
2019-01-25T07:33:05.149Z,100060.31
2019-01-25T07:38:11.936Z,100063.90
2019-01-25T07:43:22.280Z,100081.50
2019-01-25T07:48:30.062Z,100070.09
2019-01-25T07:53:43.995Z,100067.80
2019-01-25T07:58:57.253Z,100068.48
2019-01-25T08:04:09.215Z,100062.19
2019-01-25T08:09:14.869Z,100062.09
2019-01-25T08:14:30.330Z,100070.39
2019-01-25T08:19:40.808Z,100067.52
2019-01-25T08:24:47.580Z,100072.00
2019-01-25T08:29:52.975Z,100087.70
2019-01-25T08:35:00.873Z,100090.60
2019-01-25T08:40:11.949Z,100085.30
2019-01-25T08:45:17.609Z,100089.30
2019-01-25T08:50:23.304Z,100094.50
2019-01-25T08:55:41.811Z,100094.59
2019-01-25T09:00:47.110Z,100091.89
2019-01-25T09:05:53.610Z,100084.88
2019-01-25T09:10:59.240Z,100082.08
2019-01-25T09:16:04.630Z,100083.78
2019-01-25T09:21:11.435Z,100087.19
2019-01-25T09:26:19.171Z,100088.07
2019-01-25T09:31:34.528Z,100089.97
2019-01-25T09:37:11.850Z,100086.95
2019-01-25T09:42:40.058Z,100086.00
2019-01-25T09:48:08.608Z,100079.90
2019-01-25T09:53:30.822Z,100083.36
2019-01-25T09:58:41.373Z,100088.66
2019-01-25T10:03:46.720Z,100084.87
2019-01-25T10:08:57.045Z,100096.19
2019-01-25T10:14:02.968Z,100086.33
2019-01-25T10:19:08.121Z,100083.94
2019-01-25T10:24:14.602Z,100074.55
2019-01-25T10:29:19.973Z,100061.73
2019-01-25T10:34:25.296Z,100055.58
2019-01-25T10:39:33.116Z,100060.09
2019-01-25T10:44:39.050Z,100057.89
2019-01-25T10:49:46.172Z,100073.91
2019-01-25T10:55:08.524Z,100059.48
2019-01-25T11:00:27.273Z,100063.73
2019-01-25T11:05:35.886Z,100065.71
2019-01-25T11:10:47.545Z,100052.73
2019-01-25T11:15:58.252Z,100052.64
2019-01-25T11:21:04.066Z,100051.24
2019-01-25T11:26:12.300Z,100046.03
2019-01-25T11:31:21.890Z,100041.92
2019-01-25T11:37:00.020Z,100041.28
2019-01-25T11:42:09.006Z,100036.95
2019-01-25T11:47:18.873Z,100046.67
2019-01-25T11:52:27.156Z,100035.50
2019-01-25T11:57:45.697Z,100039.38
2019-01-25T12:02:57.108Z,100040.77
2019-01-25T12:08:03.714Z,100034.59
2019-01-25T12:13:16.130Z,100025.39
2019-01-25T12:18:21.744Z,100022.61
2019-01-25T12:23:29.402Z,100024.64
2019-01-25T12:28:59.232Z,100024.64
2019-01-25T12:34:13.088Z,100014.53
2019-01-25T12:39:18.845Z,100019.31
2019-01-25T12:44:27.636Z,100019.91
2019-01-25T12:49:33.304Z,100013.41
2019-01-25T12:54:40.345Z,100007.59
2019-01-25T13:00:15.560Z,100005.08
2019-01-25T13:05:24.650Z,99990.94
2019-01-25T13:10:30.384Z,99990.33
2019-01-25T13:15:40.968Z,99990.20
2019-01-25T13:20:46.943Z,99992.30
2019-01-25T13:26:00.730Z,99987.44
2019-01-25T13:31:11.976Z,99974.55
2019-01-25T13:36:24.152Z,99973.67
2019-01-25T13:41:30.182Z,99980.05
2019-01-25T13:46:35.660Z,99979.58
2019-01-25T13:51:52.611Z,99975.45
2019-01-25T13:56:58.443Z,99991.08
2019-01-25T14:02:04.043Z,99979.36
2019-01-25T14:07:29.130Z,99982.74
2019-01-25T14:12:39.268Z,99971.68
2019-01-25T14:17:45.468Z,99958.36
2019-01-25T14:22:50.803Z,99961.73
2019-01-25T14:28:01.082Z,99975.45
2019-01-25T14:33:07.564Z,99970.02
2019-01-25T14:38:19.626Z,99953.91
2019-01-25T14:43:25.768Z,99938.55
2019-01-25T14:48:31.093Z,99950.53
2019-01-25T14:53:36.396Z,99949.92
2019-01-25T14:58:41.790Z,99952.50
2019-01-25T15:03:48.963Z,99952.33
2019-01-25T15:08:54.978Z,99949.20
2019-01-25T15:14:02.472Z,99967.12
2019-01-25T15:19:10.073Z,99969.77
2019-01-25T15:24:18.276Z,99964.69
2019-01-25T15:29:23.745Z,99954.76
2019-01-25T15:34:29.173Z,99944.52
2019-01-25T15:39:39.556Z,99953.89
2019-01-25T15:44:46.772Z,99947.64
2019-01-25T15:49:52.380Z,99953.41
2019-01-25T15:54:58.039Z,99946.77
2019-01-25T16:00:03.874Z,99943.09
2019-01-25T16:05:11.216Z,99947.69
2019-01-25T16:10:18.831Z,99966.22
2019-01-25T16:15:32.954Z,99970.33
2019-01-25T16:20:40.301Z,99978.44
2019-01-25T16:25:45.531Z,99983.26
2019-01-25T16:30:51.023Z,99978.97
2019-01-25T16:35:59.316Z,99977.71
2019-01-25T16:41:04.841Z,99985.83
2019-01-25T16:46:10.481Z,99984.77
2019-01-25T16:51:15.856Z,99976.36
2019-01-25T16:56:21.170Z,99976.88
2019-01-25T17:01:28.352Z,99975.54
2019-01-25T17:06:35.589Z,99944.52
2019-01-25T17:11:40.870Z,99959.27
2019-01-25T17:17:19.380Z,99957.31
2019-01-25T17:28:45.849Z,99958.25
2019-01-25T17:34:19.987Z,99949.05
2019-01-25T17:39:42.390Z,99947.48
2019-01-25T17:44:50.965Z,99938.29
2019-01-25T17:49:59.088Z,99941.98
2019-01-25T17:55:17.819Z,99949.17
2019-01-25T18:00:31.900Z,99936.69
2019-01-25T18:05:40.091Z,99930.78
2019-01-25T18:10:52.318Z,99923.80
2019-01-25T18:16:17.519Z,99912.01
2019-01-25T18:21:23.521Z,99907.23
2019-01-25T18:26:30.436Z,99907.31
2019-01-25T18:31:41.567Z,99900.30
2019-01-25T18:36:53.821Z,99898.48
2019-01-25T18:42:00.067Z,99899.09
2019-01-25T18:47:15.958Z,99875.77
2019-01-25T18:52:25.482Z,99886.91
2019-01-25T18:57:32.825Z,99875.02
2019-01-25T19:02:49.504Z,99875.59
2019-01-25T19:07:59.055Z,99881.25
2019-01-25T19:13:10.758Z,99873.63
2019-01-25T19:18:28.614Z,99867.31
2019-01-25T19:23:51.962Z,99857.69
2019-01-25T19:29:07.221Z,99856.78
2019-01-25T19:34:17.990Z,99850.70
2019-01-25T19:39:36.674Z,99834.84
2019-01-25T19:45:03.662Z,99812.60
2019-01-25T19:50:21.602Z,99800.90
2019-01-25T19:55:38.495Z,99787.38
2019-01-25T20:00:56.779Z,99791.50
2019-01-25T20:06:12.699Z,99782.83
2019-01-25T20:11:20.483Z,99787.34
2019-01-25T20:16:36.501Z,99779.11
2019-01-25T20:21:43.921Z,99786.42
2019-01-25T20:26:51.165Z,99769.43
2019-01-25T20:31:59.284Z,99767.56
2019-01-25T20:37:06.559Z,99763.74
2019-01-25T20:42:14.487Z,99769.56
2019-01-25T20:47:19.866Z,99751.09
2019-01-25T20:52:26.975Z,99737.89
2019-01-25T20:57:32.329Z,99728.80
2019-01-25T21:02:38.287Z,99729.95
2019-01-25T21:07:48.685Z,99715.21
2019-01-25T21:12:54.349Z,99711.11
2019-01-25T21:18:13.040Z,99709.01
2019-01-25T21:23:18.297Z,99687.91
2019-01-25T21:28:23.683Z,99679.48
2019-01-25T21:33:28.761Z,99677.09
2019-01-25T21:38:39.239Z,99673.20
2019-01-25T21:43:44.553Z,99665.55
2019-01-25T21:48:51.577Z,99659.11
2019-01-25T21:53:59.191Z,99642.76
2019-01-25T21:59:04.914Z,99636.11
2019-01-25T22:04:12.253Z,99632.50
2019-01-25T22:09:17.667Z,99626.58
2019-01-25T22:14:22.988Z,99625.99
2019-01-25T22:19:29.460Z,99623.19
2019-01-25T22:24:35.381Z,99605.37
2019-01-25T22:29:40.820Z,99587.67
2019-01-25T22:34:46.935Z,99589.33
2019-01-25T22:39:52.533Z,99584.98
2019-01-25T22:44:57.639Z,99578.67
2019-01-25T22:50:02.646Z,99574.34
2019-01-25T22:55:10.512Z,99571.22
2019-01-25T23:01:01.231Z,99547.04
2019-01-25T23:06:34.527Z,99539.84
2019-01-25T23:11:39.878Z,99520.86
2019-01-25T23:16:45.500Z,99505.58
2019-01-25T23:21:51.924Z,99474.37
2019-01-25T23:27:03.092Z,99478.40
2019-01-25T23:32:08.846Z,99457.03
2019-01-25T23:37:14.751Z,99454.72
2019-01-25T23:42:20.199Z,99442.52
2019-01-25T23:47:25.489Z,99435.92
2019-01-25T23:52:30.990Z,99431.84
2019-01-25T23:57:36.305Z,99416.31
